sensor_id;sensor_type;location;lat;lon;timestamp;pressure;altitude;pressure_sealevel;temperature;humidity
72794;BME280;63436;26.334;50.194;2023-04-22T00:00:18;100669.73;;;29.78;31.50
72794;BME280;63436;26.334;50.194;2023-04-22T00:05:07;100670.20;;;27.85;33.24
72794;BME280;63436;26.334;50.194;2023-04-22T00:07:38;100673.05;;;28.72;32.29
72794;BME280;63436;26.334;50.194;2023-04-22T00:10:01;100673.70;;;29.65;31.99
72794;BME280;63436;26.334;50.194;2023-04-22T00:12:24;100669.41;;;29.35;31.93
72794;BME280;63436;26.334;50.194;2023-04-22T00:14:50;100666.87;;;28.46;33.01
72794;BME280;63436;26.334;50.194;2023-04-22T00:17:13;100664.45;;;29.31;32.17
72794;BME280;63436;26.334;50.194;2023-04-22T00:19:37;100666.28;;;29.03;32.79
72794;BME280;63436;26.334;50.194;2023-04-22T00:22:03;100668.56;;;29.30;32.10
72794;BME280;63436;26.334;50.194;2023-04-22T00:24:31;100671.12;;;29.26;32.31
72794;BME280;63436;26.334;50.194;2023-04-22T00:26:55;100673.05;;;28.83;33.28
72794;BME280;63436;26.334;50.194;2023-04-22T00:29:18;100676.66;;;28.98;33.42
72794;BME280;63436;26.334;50.194;2023-04-22T00:34:09;100680.63;;;29.28;33.31
72794;BME280;63436;26.334;50.194;2023-04-22T00:36:36;100680.47;;;29.49;33.09
72794;BME280;63436;26.334;50.194;2023-04-22T00:39:02;100680.32;;;29.11;33.22
72794;BME280;63436;26.334;50.194;2023-04-22T00:41:32;100678.32;;;28.67;33.56
72794;BME280;63436;26.334;50.194;2023-04-22T00:43:55;100675.77;;;29.19;33.53
72794;BME280;63436;26.334;50.194;2023-04-22T00:46:19;100674.78;;;29.28;32.95
72794;BME280;63436;26.334;50.194;2023-04-22T00:48:46;100679.04;;;29.41;33.20
72794;BME280;63436;26.334;50.194;2023-04-22T00:51:11;100682.32;;;28.71;34.19
72794;BME280;63436;26.334;50.194;2023-04-22T00:53:40;100686.77;;;28.99;33.68
72794;BME280;63436;26.334;50.194;2023-04-22T00:56:02;100689.49;;;28.70;33.67
72794;BME280;63436;26.334;50.194;2023-04-22T00:58:28;100695.22;;;29.05;33.27
72794;BME280;63436;26.334;50.194;2023-04-22T01:00:58;100694.03;;;29.49;33.01
72794;BME280;63436;26.334;50.194;2023-04-22T01:03:14;100692.68;;;29.40;33.00
72794;BME280;63436;26.334;50.194;2023-04-22T01:05:43;100690.35;;;28.79;33.85
72794;BME280;63436;26.334;50.194;2023-04-22T01:08:06;100692.32;;;28.91;33.68
72794;BME280;63436;26.334;50.194;2023-04-22T01:10:31;100702.17;;;28.96;33.57
72794;BME280;63436;26.334;50.194;2023-04-22T01:13:01;100710.67;;;29.64;32.79
72794;BME280;63436;26.334;50.194;2023-04-22T01:15:22;100710.99;;;29.52;33.00
72794;BME280;63436;26.334;50.194;2023-04-22T01:17:47;100715.87;;;29.55;32.95
72794;BME280;63436;26.334;50.194;2023-04-22T01:20:11;100717.02;;;30.54;31.78
72794;BME280;63436;26.334;50.194;2023-04-22T01:22:40;100718.47;;;29.43;33.06
72794;BME280;63436;26.334;50.194;2023-04-22T01:25:03;100721.35;;;29.23;32.96
72794;BME280;63436;26.334;50.194;2023-04-22T01:27:29;100718.29;;;28.87;33.67
72794;BME280;63436;26.334;50.194;2023-04-22T01:29:54;100722.83;;;28.54;34.04
72794;BME280;63436;26.334;50.194;2023-04-22T01:32:17;100725.78;;;29.16;33.42
72794;BME280;63436;26.334;50.194;2023-04-22T01:34:46;100728.02;;;29.10;33.37
72794;BME280;63436;26.334;50.194;2023-04-22T01:37:09;100727.77;;;29.18;33.10
72794;BME280;63436;26.334;50.194;2023-04-22T01:39:33;100732.78;;;29.45;33.16
72794;BME280;63436;26.334;50.194;2023-04-22T01:41:59;100736.66;;;29.16;33.77
72794;BME280;63436;26.334;50.194;2023-04-22T01:44:25;100741.07;;;28.78;33.84
72794;BME280;63436;26.334;50.194;2023-04-22T01:46:54;100747.08;;;28.65;34.25
72794;BME280;63436;26.334;50.194;2023-04-22T01:49:17;100748.65;;;28.98;33.68
72794;BME280;63436;26.334;50.194;2023-04-22T01:51:42;100751.57;;;29.09;33.56
72794;BME280;63436;26.334;50.194;2023-04-22T01:54:07;100750.91;;;28.94;33.72
72794;BME280;63436;26.334;50.194;2023-04-22T01:56:32;100751.37;;;28.80;33.73
72794;BME280;63436;26.334;50.194;2023-04-22T01:58:59;100750.01;;;28.85;33.90
72794;BME280;63436;26.334;50.194;2023-04-22T02:01:23;100755.38;;;29.48;33.27
72794;BME280;63436;26.334;50.194;2023-04-22T02:03:48;100756.24;;;28.75;33.81
72794;BME280;63436;26.334;50.194;2023-04-22T02:06:13;100759.81;;;29.04;33.49
72794;BME280;63436;26.334;50.194;2023-04-22T02:08:41;100764.56;;;28.38;34.42
72794;BME280;63436;26.334;50.194;2023-04-22T02:11:10;100764.17;;;28.16;34.44
72794;BME280;63436;26.334;50.194;2023-04-22T02:13:36;100766.73;;;28.19;34.81
72794;BME280;63436;26.334;50.194;2023-04-22T02:16:00;100769.28;;;28.51;34.14
72794;BME280;63436;26.334;50.194;2023-04-22T02:18:26;100773.07;;;30.19;32.62
72794;BME280;63436;26.334;50.194;2023-04-22T02:20:51;100777.21;;;30.43;32.25
72794;BME280;63436;26.334;50.194;2023-04-22T02:23:15;100779.86;;;29.06;33.74
72794;BME280;63436;26.334;50.194;2023-04-22T02:25:46;100788.15;;;28.27;34.42
72794;BME280;63436;26.334;50.194;2023-04-22T02:28:11;100791.29;;;28.58;34.03
72794;BME280;63436;26.334;50.194;2023-04-22T02:30:32;100791.63;;;28.32;34.45
72794;BME280;63436;26.334;50.194;2023-04-22T02:33:04;100790.74;;;28.64;34.33
72794;BME280;63436;26.334;50.194;2023-04-22T02:35:26;100787.99;;;28.76;33.99
72794;BME280;63436;26.334;50.194;2023-04-22T02:37:47;100781.97;;;28.92;33.61
72794;BME280;63436;26.334;50.194;2023-04-22T02:40:15;100787.61;;;29.29;33.67
72794;BME280;63436;26.334;50.194;2023-04-22T02:42:40;100788.33;;;28.98;33.67
72794;BME280;63436;26.334;50.194;2023-04-22T02:45:10;100791.61;;;28.82;33.96
72794;BME280;63436;26.334;50.194;2023-04-22T02:47:30;100793.69;;;28.82;34.09
72794;BME280;63436;26.334;50.194;2023-04-22T02:49:58;100800.43;;;29.07;33.85
72794;BME280;63436;26.334;50.194;2023-04-22T02:52:20;100807.05;;;29.31;33.61
72794;BME280;63436;26.334;50.194;2023-04-22T02:54:49;100810.64;;;29.80;33.66
72794;BME280;63436;26.334;50.194;2023-04-22T02:57:11;100811.99;;;29.68;33.28
72794;BME280;63436;26.334;50.194;2023-04-22T02:59:39;100816.99;;;29.81;33.75
72794;BME280;63436;26.334;50.194;2023-04-22T03:02:02;100821.88;;;29.90;33.55
72794;BME280;63436;26.334;50.194;2023-04-22T03:04:25;100822.77;;;29.92;34.02
72794;BME280;63436;26.334;50.194;2023-04-22T03:06:54;100822.72;;;29.77;34.03
72794;BME280;63436;26.334;50.194;2023-04-22T03:09:18;100817.25;;;30.25;33.15
72794;BME280;63436;26.334;50.194;2023-04-22T03:11:42;100818.50;;;30.77;32.34
72794;BME280;63436;26.334;50.194;2023-04-22T03:14:07;100818.91;;;30.78;32.44
72794;BME280;63436;26.334;50.194;2023-04-22T03:16:34;100823.49;;;29.88;34.06
72794;BME280;63436;26.334;50.194;2023-04-22T03:18:59;100824.02;;;30.86;33.37
72794;BME280;63436;26.334;50.194;2023-04-22T03:21:24;100827.80;;;30.02;34.58
72794;BME280;63436;26.334;50.194;2023-04-22T03:23:50;100829.78;;;30.05;34.72
72794;BME280;63436;26.334;50.194;2023-04-22T03:26:15;100833.91;;;30.49;33.94
72794;BME280;63436;26.334;50.194;2023-04-22T03:28:40;100832.31;;;30.35;34.82
72794;BME280;63436;26.334;50.194;2023-04-22T03:31:08;100831.03;;;31.05;33.56
72794;BME280;63436;26.334;50.194;2023-04-22T03:33:31;100830.51;;;30.95;33.57
72794;BME280;63436;26.334;50.194;2023-04-22T03:35:57;100832.75;;;30.97;34.29
72794;BME280;63436;26.334;50.194;2023-04-22T03:38:22;100836.02;;;30.82;34.65
72794;BME280;63436;26.334;50.194;2023-04-22T03:40:48;100840.73;;;30.37;34.53
72794;BME280;63436;26.334;50.194;2023-04-22T03:43:12;100846.53;;;30.74;34.27
72794;BME280;63436;26.334;50.194;2023-04-22T03:45:40;100849.32;;;31.74;32.37
72794;BME280;63436;26.334;50.194;2023-04-22T03:48:08;100859.83;;;31.29;32.40
72794;BME280;63436;26.334;50.194;2023-04-22T03:50:30;100864.36;;;31.87;31.49
72794;BME280;63436;26.334;50.194;2023-04-22T03:52:56;100873.93;;;29.87;33.27
72794;BME280;63436;26.334;50.194;2023-04-22T03:55:21;100873.97;;;32.42;30.72
72794;BME280;63436;26.334;50.194;2023-04-22T03:57:46;100876.72;;;31.93;30.47
72794;BME280;63436;26.334;50.194;2023-04-22T04:00:12;100880.45;;;31.95;30.31
72794;BME280;63436;26.334;50.194;2023-04-22T04:02:37;100887.87;;;32.27;29.92
72794;BME280;63436;26.334;50.194;2023-04-22T04:05:06;100891.51;;;30.86;32.03
72794;BME280;63436;26.334;50.194;2023-04-22T04:07:32;100897.13;;;31.23;30.65
72794;BME280;63436;26.334;50.194;2023-04-22T04:09:56;100897.61;;;31.33;30.67
72794;BME280;63436;26.334;50.194;2023-04-22T04:12:21;100896.88;;;31.45;30.36
72794;BME280;63436;26.334;50.194;2023-04-22T04:14:47;100899.97;;;31.26;30.30
72794;BME280;63436;26.334;50.194;2023-04-22T04:17:12;100902.95;;;31.84;29.10
72794;BME280;63436;26.334;50.194;2023-04-22T04:19:41;100908.32;;;32.03;29.09
72794;BME280;63436;26.334;50.194;2023-04-22T04:22:05;100911.81;;;31.71;28.99
72794;BME280;63436;26.334;50.194;2023-04-22T04:24:29;100920.77;;;31.83;29.97
72794;BME280;63436;26.334;50.194;2023-04-22T04:26:57;100923.15;;;32.08;28.40
72794;BME280;63436;26.334;50.194;2023-04-22T04:29:21;100929.33;;;31.87;28.58
72794;BME280;63436;26.334;50.194;2023-04-22T04:31:46;100933.95;;;31.87;27.89
72794;BME280;63436;26.334;50.194;2023-04-22T04:34:14;100940.63;;;31.62;26.55
72794;BME280;63436;26.334;50.194;2023-04-22T04:36:39;100945.68;;;32.15;25.01
72794;BME280;63436;26.334;50.194;2023-04-22T04:39:02;100952.72;;;31.63;25.47
72794;BME280;63436;26.334;50.194;2023-04-22T04:41:28;100949.90;;;31.67;26.19
72794;BME280;63436;26.334;50.194;2023-04-22T04:43:56;100945.76;;;30.90;26.33
72794;BME280;63436;26.334;50.194;2023-04-22T04:46:21;100944.70;;;30.48;27.30
72794;BME280;63436;26.334;50.194;2023-04-22T04:48:46;100947.87;;;31.04;26.64
72794;BME280;63436;26.334;50.194;2023-04-22T04:51:11;100954.37;;;30.28;27.63
72794;BME280;63436;26.334;50.194;2023-04-22T04:53:36;100956.78;;;31.10;26.97
72794;BME280;63436;26.334;50.194;2023-04-22T04:56:02;100962.59;;;29.90;28.18
72794;BME280;63436;26.334;50.194;2023-04-22T04:58:28;100956.90;;;31.08;27.43
72794;BME280;63436;26.334;50.194;2023-04-22T05:00:58;100954.61;;;30.70;27.58
72794;BME280;63436;26.334;50.194;2023-04-22T05:03:10;100950.70;;;31.42;26.90
72794;BME280;63436;26.334;50.194;2023-04-22T05:05:43;100943.93;;;30.27;27.76
72794;BME280;63436;26.334;50.194;2023-04-22T05:08:06;100941.38;;;30.16;27.33
72794;BME280;63436;26.334;50.194;2023-04-22T05:10:32;100937.30;;;30.62;27.31
72794;BME280;63436;26.334;50.194;2023-04-22T05:13:00;100933.63;;;30.56;27.09
72794;BME280;63436;26.334;50.194;2023-04-22T05:15:22;100933.92;;;30.29;27.68
72794;BME280;63436;26.334;50.194;2023-04-22T05:17:48;100933.95;;;30.66;27.27
72794;BME280;63436;26.334;50.194;2023-04-22T05:20:15;100936.57;;;30.41;27.73
72794;BME280;63436;26.334;50.194;2023-04-22T05:22:41;100944.95;;;30.67;26.92
72794;BME280;63436;26.334;50.194;2023-04-22T05:25:08;100948.24;;;31.61;26.00
72794;BME280;63436;26.334;50.194;2023-04-22T05:27:32;100949.41;;;30.04;27.21
72794;BME280;63436;26.334;50.194;2023-04-22T05:29:56;100955.78;;;29.71;27.93
72794;BME280;63436;26.334;50.194;2023-04-22T05:32:23;100959.35;;;30.00;28.13
72794;BME280;63436;26.334;50.194;2023-04-22T05:34:48;100961.52;;;30.45;27.61
72794;BME280;63436;26.334;50.194;2023-04-22T05:37:14;100966.00;;;30.74;27.66
72794;BME280;63436;26.334;50.194;2023-04-22T05:39:38;100969.97;;;31.60;27.18
72794;BME280;63436;26.334;50.194;2023-04-22T05:42:07;100973.08;;;31.23;27.33
72794;BME280;63436;26.334;50.194;2023-04-22T05:44:30;100971.33;;;31.21;26.92
72794;BME280;63436;26.334;50.194;2023-04-22T05:46:56;100967.44;;;31.70;26.57
72794;BME280;63436;26.334;50.194;2023-04-22T05:49:21;100966.48;;;32.18;26.13
72794;BME280;63436;26.334;50.194;2023-04-22T05:51:46;100966.96;;;32.02;26.61
72794;BME280;63436;26.334;50.194;2023-04-22T05:54:12;100968.68;;;32.88;25.51
72794;BME280;63436;26.334;50.194;2023-04-22T05:56:40;100966.74;;;32.75;25.79
72794;BME280;63436;26.334;50.194;2023-04-22T05:59:05;100966.98;;;32.84;25.29
72794;BME280;63436;26.334;50.194;2023-04-22T06:01:30;100968.14;;;33.19;24.70
72794;BME280;63436;26.334;50.194;2023-04-22T06:04:02;100967.96;;;33.33;24.66
72794;BME280;63436;26.334;50.194;2023-04-22T06:06:22;100972.14;;;31.81;27.01
72794;BME280;63436;26.334;50.194;2023-04-22T06:08:52;100975.52;;;33.42;25.11
72794;BME280;63436;26.334;50.194;2023-04-22T06:11:14;100978.73;;;33.55;23.53
72794;BME280;63436;26.334;50.194;2023-04-22T06:13:38;100974.82;;;32.83;24.45
72794;BME280;63436;26.334;50.194;2023-04-22T06:16:03;100978.86;;;32.54;24.19
72794;BME280;63436;26.334;50.194;2023-04-22T06:18:29;100976.31;;;32.30;23.68
72794;BME280;63436;26.334;50.194;2023-04-22T06:20:57;100975.15;;;32.25;23.60
72794;BME280;63436;26.334;50.194;2023-04-22T06:23:20;100973.62;;;32.89;22.70
72794;BME280;63436;26.334;50.194;2023-04-22T06:25:46;100972.64;;;33.42;22.12
72794;BME280;63436;26.334;50.194;2023-04-22T06:28:14;100976.59;;;33.39;22.03
72794;BME280;63436;26.334;50.194;2023-04-22T06:30:37;100975.88;;;33.24;21.79
72794;BME280;63436;26.334;50.194;2023-04-22T06:33:04;100981.56;;;33.36;22.00
72794;BME280;63436;26.334;50.194;2023-04-22T06:35:27;100986.39;;;33.78;21.44
72794;BME280;63436;26.334;50.194;2023-04-22T06:37:56;100982.86;;;33.01;21.52
72794;BME280;63436;26.334;50.194;2023-04-22T06:40:19;100985.92;;;33.61;20.86
72794;BME280;63436;26.334;50.194;2023-04-22T06:42:43;100986.65;;;33.31;20.03
72794;BME280;63436;26.334;50.194;2023-04-22T06:45:11;100988.55;;;33.29;19.90
72794;BME280;63436;26.334;50.194;2023-04-22T06:47:35;100993.39;;;33.60;19.44
72794;BME280;63436;26.334;50.194;2023-04-22T06:50:00;100991.92;;;33.70;19.59
72794;BME280;63436;26.334;50.194;2023-04-22T06:52:25;100986.87;;;33.42;18.78
72794;BME280;63436;26.334;50.194;2023-04-22T06:54:58;100984.98;;;33.15;19.18
72794;BME280;63436;26.334;50.194;2023-04-22T06:57:17;100984.68;;;32.27;20.14
72794;BME280;63436;26.334;50.194;2023-04-22T06:59:44;100991.31;;;33.45;18.92
72794;BME280;63436;26.334;50.194;2023-04-22T07:02:07;100986.93;;;32.33;19.18
72794;BME280;63436;26.334;50.194;2023-04-22T07:04:31;100986.01;;;32.35;19.65
72794;BME280;63436;26.334;50.194;2023-04-22T07:07:00;100989.06;;;31.76;19.70
72794;BME280;63436;26.334;50.194;2023-04-22T07:09:23;100983.95;;;32.52;19.13
72794;BME280;63436;26.334;50.194;2023-04-22T07:11:48;100983.00;;;33.03;18.60
72794;BME280;63436;26.334;50.194;2023-04-22T07:14:14;100981.22;;;33.16;18.36
72794;BME280;63436;26.334;50.194;2023-04-22T07:16:41;100977.78;;;32.24;18.67
72794;BME280;63436;26.334;50.194;2023-04-22T07:19:05;100971.92;;;32.72;18.51
72794;BME280;63436;26.334;50.194;2023-04-22T07:21:31;100964.68;;;32.20;19.64
72794;BME280;63436;26.334;50.194;2023-04-22T07:24:02;100959.83;;;32.97;18.66
72794;BME280;63436;26.334;50.194;2023-04-22T07:26:21;100964.78;;;32.93;18.13
72794;BME280;63436;26.334;50.194;2023-04-22T07:28:46;100968.93;;;33.09;18.68
72794;BME280;63436;26.334;50.194;2023-04-22T07:31:13;100969.24;;;33.45;18.97
72794;BME280;63436;26.334;50.194;2023-04-22T07:33:38;100968.17;;;33.72;18.02
72794;BME280;63436;26.334;50.194;2023-04-22T07:36:03;100970.07;;;34.11;17.19
72794;BME280;63436;26.334;50.194;2023-04-22T07:38:28;100969.33;;;32.45;18.71
72794;BME280;63436;26.334;50.194;2023-04-22T07:40:53;100974.25;;;33.63;18.63
72794;BME280;63436;26.334;50.194;2023-04-22T07:43:21;100970.96;;;34.43;17.56
72794;BME280;63436;26.334;50.194;2023-04-22T07:45:45;100970.06;;;33.88;17.33
72794;BME280;63436;26.334;50.194;2023-04-22T07:48:10;100963.28;;;34.32;17.12
72794;BME280;63436;26.334;50.194;2023-04-22T07:50:35;100962.88;;;33.19;17.48
72794;BME280;63436;26.334;50.194;2023-04-22T07:53:06;100956.42;;;34.27;17.58
72794;BME280;63436;26.334;50.194;2023-04-22T07:55:27;100957.22;;;33.16;17.96
72794;BME280;63436;26.334;50.194;2023-04-22T07:57:55;100949.17;;;34.45;16.80
72794;BME280;63436;26.334;50.194;2023-04-22T08:00:18;100945.84;;;32.61;17.54
72794;BME280;63436;26.334;50.194;2023-04-22T08:02:44;100945.41;;;33.72;16.99
72794;BME280;63436;26.334;50.194;2023-04-22T08:05:08;100946.93;;;33.55;16.73
72794;BME280;63436;26.334;50.194;2023-04-22T08:07:34;100939.44;;;33.74;16.85
72794;BME280;63436;26.334;50.194;2023-04-22T08:09:59;100932.97;;;33.98;16.79
72794;BME280;63436;26.334;50.194;2023-04-22T08:12:26;100929.22;;;32.87;17.64
72794;BME280;63436;26.334;50.194;2023-04-22T08:14:54;100927.15;;;33.67;16.90
72794;BME280;63436;26.334;50.194;2023-04-22T08:17:17;100928.81;;;33.73;16.77
72794;BME280;63436;26.334;50.194;2023-04-22T08:19:41;100933.72;;;33.56;16.74
72794;BME280;63436;26.334;50.194;2023-04-22T08:22:07;100937.02;;;34.82;15.98
72794;BME280;63436;26.334;50.194;2023-04-22T08:24:35;100940.57;;;34.23;16.44
72794;BME280;63436;26.334;50.194;2023-04-22T08:27:00;100939.88;;;34.18;16.82
72794;BME280;63436;26.334;50.194;2023-04-22T08:29:25;100936.20;;;34.00;17.01
72794;BME280;63436;26.334;50.194;2023-04-22T08:31:51;100937.07;;;33.03;18.09
72794;BME280;63436;26.334;50.194;2023-04-22T08:34:15;100934.10;;;33.83;17.26
72794;BME280;63436;26.334;50.194;2023-04-22T08:36:42;100933.48;;;34.20;17.00
72794;BME280;63436;26.334;50.194;2023-04-22T08:39:06;100929.47;;;34.55;16.52
72794;BME280;63436;26.334;50.194;2023-04-22T08:41:32;100923.89;;;34.21;17.01
72794;BME280;63436;26.334;50.194;2023-04-22T08:43:59;100922.46;;;34.96;16.47
72794;BME280;63436;26.334;50.194;2023-04-22T08:46:23;100917.81;;;35.00;16.23
72794;BME280;63436;26.334;50.194;2023-04-22T08:48:51;100918.61;;;34.24;22.41
72794;BME280;63436;26.334;50.194;2023-04-22T08:51:13;100926.58;;;33.77;26.09
72794;BME280;63436;26.334;50.194;2023-04-22T08:53:38;100925.21;;;34.07;27.28
72794;BME280;63436;26.334;50.194;2023-04-22T08:56:04;100932.21;;;32.41;30.93
72794;BME280;63436;26.334;50.194;2023-04-22T08:58:31;100936.49;;;32.82;30.79
72794;BME280;63436;26.334;50.194;2023-04-22T09:00:57;100934.52;;;33.40;30.29
72794;BME280;63436;26.334;50.194;2023-04-22T09:03:25;100937.84;;;32.55;30.70
72794;BME280;63436;26.334;50.194;2023-04-22T09:05:48;100932.81;;;32.75;30.14
72794;BME280;63436;26.334;50.194;2023-04-22T09:08:12;100929.91;;;32.87;30.30
72794;BME280;63436;26.334;50.194;2023-04-22T09:13:07;100917.04;;;32.07;31.11
72794;BME280;63436;26.334;50.194;2023-04-22T09:15:29;100919.17;;;32.96;30.06
72794;BME280;63436;26.334;50.194;2023-04-22T09:17:56;100911.48;;;32.36;30.48
72794;BME280;63436;26.334;50.194;2023-04-22T09:20:18;100908.37;;;32.16;30.51
72794;BME280;63436;26.334;50.194;2023-04-22T09:22:46;100913.63;;;33.16;29.74
72794;BME280;63436;26.334;50.194;2023-04-22T09:27:34;100910.88;;;32.78;29.53
72794;BME280;63436;26.334;50.194;2023-04-22T09:30:05;100909.53;;;33.22;28.96
72794;BME280;63436;26.334;50.194;2023-04-22T09:32:27;100907.25;;;32.61;29.87
72794;BME280;63436;26.334;50.194;2023-04-22T09:34:55;100907.41;;;32.95;29.66
72794;BME280;63436;26.334;50.194;2023-04-22T09:37:19;100902.90;;;32.11;30.51
72794;BME280;63436;26.334;50.194;2023-04-22T09:39:45;100902.48;;;32.02;31.06
72794;BME280;63436;26.334;50.194;2023-04-22T09:42:07;100901.79;;;33.39;29.76
72794;BME280;63436;26.334;50.194;2023-04-22T09:44:36;100898.55;;;31.28;32.08
72794;BME280;63436;26.334;50.194;2023-04-22T09:46:59;100899.82;;;33.40;29.13
72794;BME280;63436;26.334;50.194;2023-04-22T09:49:24;100902.13;;;32.80;29.17
72794;BME280;63436;26.334;50.194;2023-04-22T09:51:51;100890.91;;;31.89;29.90
72794;BME280;63436;26.334;50.194;2023-04-22T09:54:14;100884.55;;;31.95;29.68
72794;BME280;63436;26.334;50.194;2023-04-22T09:56:47;100881.06;;;30.86;30.96
72794;BME280;63436;26.334;50.194;2023-04-22T09:59:06;100881.57;;;30.74;31.49
72794;BME280;63436;26.334;50.194;2023-04-22T10:01:35;100876.67;;;31.09;31.27
72794;BME280;63436;26.334;50.194;2023-04-22T10:03:53;100865.83;;;32.05;30.16
72794;BME280;63436;26.334;50.194;2023-04-22T10:06:22;100855.74;;;31.31;30.19
72794;BME280;63436;26.334;50.194;2023-04-22T10:08:46;100848.94;;;31.51;29.96
72794;BME280;63436;26.334;50.194;2023-04-22T10:11:11;100848.57;;;31.09;30.51
72794;BME280;63436;26.334;50.194;2023-04-22T10:13:35;100849.14;;;32.36;29.51
72794;BME280;63436;26.334;50.194;2023-04-22T10:16:08;100849.17;;;33.32;27.62
72794;BME280;63436;26.334;50.194;2023-04-22T10:18:27;100846.32;;;32.50;28.73
72794;BME280;63436;26.334;50.194;2023-04-22T10:20:55;100846.94;;;32.42;27.97
72794;BME280;63436;26.334;50.194;2023-04-22T10:23:22;100843.33;;;30.43;30.10
72794;BME280;63436;26.334;50.194;2023-04-22T10:25:49;100836.95;;;33.42;26.70
72794;BME280;63436;26.334;50.194;2023-04-22T10:28:12;100839.18;;;33.04;27.45
72794;BME280;63436;26.334;50.194;2023-04-22T10:30:37;100832.83;;;34.54;25.53
72794;BME280;63436;26.334;50.194;2023-04-22T10:35:29;100831.09;;;33.56;26.73
72794;BME280;63436;26.334;50.194;2023-04-22T10:37:55;100827.39;;;31.69;28.53
72794;BME280;63436;26.334;50.194;2023-04-22T10:40:18;100825.44;;;33.45;26.84
72794;BME280;63436;26.334;50.194;2023-04-22T10:42:45;100818.58;;;31.13;29.30
72794;BME280;63436;26.334;50.194;2023-04-22T10:47:34;100807.53;;;30.72;29.38
72794;BME280;63436;26.334;50.194;2023-04-22T10:50:13;100804.84;;;31.48;29.19
72794;BME280;63436;26.334;50.194;2023-04-22T10:52:29;100800.47;;;33.18;27.69
72794;BME280;63436;26.334;50.194;2023-04-22T10:54:59;100798.86;;;31.24;28.91
72794;BME280;63436;26.334;50.194;2023-04-22T10:57:18;100799.97;;;32.49;27.64
72794;BME280;63436;26.334;50.194;2023-04-22T10:59:45;100802.03;;;31.66;28.56
72794;BME280;63436;26.334;50.194;2023-04-22T11:02:08;100796.74;;;32.72;27.68
72794;BME280;63436;26.334;50.194;2023-04-22T11:09:23;100783.36;;;32.90;28.39
72794;BME280;63436;26.334;50.194;2023-04-22T11:11:50;100778.59;;;34.38;26.83
72794;BME280;63436;26.334;50.194;2023-04-22T11:14:16;100782.97;;;31.45;29.96
72794;BME280;63436;26.334;50.194;2023-04-22T11:19:06;100786.53;;;32.30;29.88
72794;BME280;63436;26.334;50.194;2023-04-22T11:21:31;100778.73;;;33.27;28.33
72794;BME280;63436;26.334;50.194;2023-04-22T11:23:55;100781.19;;;32.70;28.77
72794;BME280;63436;26.334;50.194;2023-04-22T11:28:51;100767.61;;;33.58;26.91
72794;BME280;63436;26.334;50.194;2023-04-22T11:31:14;100763.50;;;33.32;26.64
72794;BME280;63436;26.334;50.194;2023-04-22T11:33:38;100767.65;;;31.92;27.85
72794;BME280;63436;26.334;50.194;2023-04-22T11:36:06;100759.59;;;31.12;28.32
72794;BME280;63436;26.334;50.194;2023-04-22T11:38:28;100760.91;;;31.58;27.66
72794;BME280;63436;26.334;50.194;2023-04-22T11:40:56;100752.14;;;33.49;25.60
72794;BME280;63436;26.334;50.194;2023-04-22T11:43:20;100749.34;;;33.10;26.06
72794;BME280;63436;26.334;50.194;2023-04-22T11:45:43;100749.67;;;33.56;25.82
72794;BME280;63436;26.334;50.194;2023-04-22T11:48:13;100755.84;;;32.37;26.63
72794;BME280;63436;26.334;50.194;2023-04-22T11:50:36;100752.48;;;33.39;25.52
72794;BME280;63436;26.334;50.194;2023-04-22T11:55:27;100753.81;;;30.79;27.18
72794;BME280;63436;26.334;50.194;2023-04-22T11:58:03;100751.15;;;31.93;26.25
72794;BME280;63436;26.334;50.194;2023-04-22T12:00:21;100753.44;;;32.07;26.11
72794;BME280;63436;26.334;50.194;2023-04-22T12:05:12;100750.87;;;31.91;25.14
72794;BME280;63436;26.334;50.194;2023-04-22T12:07:34;100745.34;;;32.73;24.22
72794;BME280;63436;26.334;50.194;2023-04-22T12:10:00;100745.58;;;31.94;24.85
72794;BME280;63436;26.334;50.194;2023-04-22T12:12:32;100739.56;;;33.16;23.86
72794;BME280;63436;26.334;50.194;2023-04-22T12:14:51;100740.08;;;34.51;23.04
72794;BME280;63436;26.334;50.194;2023-04-22T12:17:15;100740.78;;;34.25;23.70
72794;BME280;63436;26.334;50.194;2023-04-22T12:19:47;100745.05;;;33.23;24.93
72794;BME280;63436;26.334;50.194;2023-04-22T12:22:07;100746.14;;;33.49;24.62
72794;BME280;63436;26.334;50.194;2023-04-22T12:24:33;100743.47;;;31.04;27.46
72794;BME280;63436;26.334;50.194;2023-04-22T12:27:01;100745.80;;;31.84;26.99
72794;BME280;63436;26.334;50.194;2023-04-22T12:29:29;100748.17;;;32.00;26.98
72794;BME280;63436;26.334;50.194;2023-04-22T12:31:49;100742.90;;;32.33;26.72
72794;BME280;63436;26.334;50.194;2023-04-22T12:34:14;100749.04;;;32.17;27.09
72794;BME280;63436;26.334;50.194;2023-04-22T12:36:40;100749.71;;;32.01;27.34
72794;BME280;63436;26.334;50.194;2023-04-22T12:39:06;100745.39;;;32.67;26.66
72794;BME280;63436;26.334;50.194;2023-04-22T12:41:33;100745.13;;;32.65;26.49
72794;BME280;63436;26.334;50.194;2023-04-22T12:44:02;100742.39;;;33.38;25.73
72794;BME280;63436;26.334;50.194;2023-04-22T12:46:22;100738.44;;;33.22;25.97
72794;BME280;63436;26.334;50.194;2023-04-22T12:48:49;100735.34;;;33.96;25.51
72794;BME280;63436;26.334;50.194;2023-04-22T12:51:15;100731.59;;;32.48;26.73
72794;BME280;63436;26.334;50.194;2023-04-22T12:53:40;100725.67;;;32.78;26.78
72794;BME280;63436;26.334;50.194;2023-04-22T12:56:07;100724.80;;;31.27;28.40
72794;BME280;63436;26.334;50.194;2023-04-22T12:58:34;100720.92;;;32.75;27.17